DYG weather

Dayong Airport
Dayong, Hunan Province, China

Public forecast

Using degrees Celsius for public forecast. Weather courtesy of forecast.io.

METAR (pilot weather report)

Report is more than 6 hours old.

Retrieved 2019/03/25 08:00 UTC (2 days ago):

ZGDY 250800Z VRB02MPS CAVOK 23/07 Q1015 NOSIG

TAF (pilot weather forecast)

Forecast is more than 12 hours old.

Retrieved 2019/02/01 06:12 UTC (2 months ago):

TAF TAF ZGDY 010303Z 0106/0206 07004MPS 3000 BR BKN050 TX08/07Z TN02/23Z